Furacão DANIEL 2000: trajetória, intensidade e histórico
5/08/2000, 06:00:00
22/07/2000, 12:00:00 – 5/08/2000, 06:00:00
Trajetória histórica
Acompanhe a evolução e o deslocamento de Furacão DANIEL em 2000, com a trajetória completa registrada, ventos máximos sustentados de 110 nós, pressão central mínima e cronologia detalhada.
| Data | Hora | Tipo | Ventokm/h | PressãohPa |
|---|---|---|---|---|
| 05/08 | 06:00 | TDDepressão tropical | 45 | 1017 |
| 05/08 | 03:00 | TDDepressão tropical | 45 | 1017 |
| 05/08 | 00:00 | TDDepressão tropical | 45 | 1017 |
| 04/08 | 21:00 | TDDepressão tropical | 45 | 1016 |
| 04/08 | 18:00 | TDDepressão tropical | 45 | 1015 |
| 04/08 | 15:00 | TDDepressão tropical | 45 | 1014 |
| 04/08 | 12:00 | TDDepressão tropical | 45 | 1013 |
| 04/08 | 09:00 | TDDepressão tropical | 50 | 1013 |
| 04/08 | 06:00 | TDDepressão tropical | 55 | 1012 |
| 04/08 | 03:00 | TDDepressão tropical | 55 | 1012 |
| 04/08 | 00:00 | TDDepressão tropical | 55 | 1012 |
| 03/08 | 21:00 | TDDepressão tropical | 55 | 1011 |
| 03/08 | 18:00 | TDDepressão tropical | 55 | 1010 |
| 03/08 | 15:00 | TDDepressão tropical | 55 | 1010 |
| 03/08 | 12:00 | TDDepressão tropical | 55 | 1009 |
| 03/08 | 09:00 | TSTempestade tropical | 60 | 1009 |
| 03/08 | 06:00 | TSTempestade tropical | 65 | 1008 |
| 03/08 | 03:00 | TSTempestade tropical | 70 | 1009 |
| 03/08 | 00:00 | TSTempestade tropical | 75 | 1010 |
| 02/08 | 21:00 | TSTempestade tropical | 80 | 1009 |
| 02/08 | 18:00 | TSTempestade tropical | 85 | 1008 |
| 02/08 | 15:00 | TSTempestade tropical | 85 | 1008 |
| 02/08 | 12:00 | TSTempestade tropical | 85 | 1007 |
| 02/08 | 09:00 | TSTempestade tropical | 85 | 1007 |
| 02/08 | 06:00 | TSTempestade tropical | 85 | 1006 |
| 02/08 | 03:00 | TSTempestade tropical | 80 | 1007 |
| 02/08 | 00:00 | TSTempestade tropical | 75 | 1008 |
| 01/08 | 21:00 | TSTempestade tropical | 80 | 1007 |
| 01/08 | 18:00 | TSTempestade tropical | 85 | 1006 |
| 01/08 | 15:00 | TSTempestade tropical | 85 | 1005 |
| 01/08 | 12:00 | TSTempestade tropical | 85 | 1004 |
| 01/08 | 09:00 | TSTempestade tropical | 90 | 1003 |
| 01/08 | 06:00 | TSTempestade tropical | 95 | 1001 |
| 01/08 | 03:00 | TSTempestade tropical | 100 | 1000 |
| 01/08 | 00:00 | TSTempestade tropical | 110 | 998 |
| 31/07 | 21:00 | TSTempestade tropical | 110 | 996 |
| 31/07 | 18:00 | TSTempestade tropical | 110 | 993 |
| 31/07 | 15:00 | TSTempestade tropical | 100 | 996 |
| 31/07 | 12:00 | TSTempestade tropical | 85 | 998 |
| 31/07 | 09:00 | TSTempestade tropical | 90 | 997 |
| 31/07 | 06:00 | TSTempestade tropical | 95 | 995 |
| 31/07 | 03:00 | TSTempestade tropical | 100 | 994 |
| 31/07 | 00:00 | TSTempestade tropical | 100 | 993 |
| 30/07 | 21:00 | TSTempestade tropical | 100 | 994 |
| 30/07 | 18:00 | TSTempestade tropical | 95 | 995 |
| 30/07 | 15:00 | TSTempestade tropical | 100 | 996 |
| 30/07 | 12:00 | TSTempestade tropical | 100 | 997 |
| 30/07 | 09:00 | TSTempestade tropical | 100 | 997 |
| 30/07 | 06:00 | TSTempestade tropical | 100 | 997 |
| 30/07 | 03:00 | TSTempestade tropical | 105 | 996 |
| 30/07 | 00:00 | TSTempestade tropical | 110 | 995 |
| 29/07 | 21:00 | TSTempestade tropical | 115 | 993 |
| 29/07 | 18:00 | HFuracão | 120 | 990 |
| 29/07 | 15:00 | HFuracão | 120 | 990 |
| 29/07 | 12:00 | HFuracão | 120 | 990 |
| 29/07 | 09:00 | HFuracão | 120 | 990 |
| 29/07 | 06:00 | HFuracão | 120 | 990 |
| 29/07 | 03:00 | HFuracão | 135 | 985 |
| 29/07 | 00:00 | HFuracão | 150 | 980 |
| 28/07 | 21:00 | HFuracão | 155 | 974 |
| 28/07 | 18:00 | HFuracão | 165 | 968 |
| 28/07 | 15:00 | HFuracão | 175 | 966 |
| 28/07 | 12:00 | MHFuracão de grande intensidade | 185 | 963 |
| 28/07 | 09:00 | HFuracão | 190 | 962 |
| 28/07 | 06:00 | MHFuracão de grande intensidade | 195 | 961 |
| 28/07 | 03:00 | HFuracão | 185 | 962 |
| 28/07 | 00:00 | HFuracão | 175 | 962 |
| 27/07 | 21:00 | HFuracão | 175 | 963 |
| 27/07 | 18:00 | HFuracão | 175 | 964 |
| 27/07 | 15:00 | HFuracão | 170 | 965 |
| 27/07 | 12:00 | HFuracão | 165 | 965 |
| 27/07 | 09:00 | HFuracão | 170 | 965 |
| 27/07 | 06:00 | HFuracão | 175 | 964 |
| 27/07 | 03:00 | HFuracão | 180 | 964 |
| 27/07 | 00:00 | MHFuracão de grande intensidade | 185 | 963 |
| 26/07 | 21:00 | HFuracão | 190 | 962 |
| 26/07 | 18:00 | MHFuracão de grande intensidade | 195 | 961 |
| 26/07 | 15:00 | HFuracão | 195 | 960 |
| 26/07 | 12:00 | MHFuracão de grande intensidade | 195 | 959 |
| 26/07 | 09:00 | HFuracão | 195 | 958 |
| 26/07 | 06:00 | MHFuracão de grande intensidade | 195 | 956 |
| 26/07 | 03:00 | HFuracão | 200 | 955 |
| 26/07 | 00:00 | MHFuracão de grande intensidade | 205 | 954 |
| 25/07 | 21:00 | HFuracão | 205 | 954 |
| 25/07 | 18:00 | MHFuracão de grande intensidade | 205 | 954 |
| 25/07 | 15:00 | HFuracão | 200 | 955 |
| 25/07 | 12:00 | MHFuracão de grande intensidade | 195 | 955 |
| 25/07 | 09:00 | HFuracão | 190 | 960 |
| 25/07 | 06:00 | MHFuracão de grande intensidade | 185 | 964 |
| 25/07 | 03:00 | HFuracão | 180 | 967 |
| 25/07 | 00:00 | HFuracão | 175 | 970 |
| 24/07 | 21:00 | HFuracão | 155 | 975 |
| 24/07 | 18:00 | HFuracão | 140 | 980 |
| 24/07 | 15:00 | HFuracão | 130 | 986 |
| 24/07 | 12:00 | HFuracão | 120 | 991 |
| 24/07 | 09:00 | TSTempestade tropical | 110 | 994 |
| 24/07 | 06:00 | TSTempestade tropical | 100 | 997 |
| 24/07 | 03:00 | TSTempestade tropical | 95 | 999 |
| 24/07 | 00:00 | TSTempestade tropical | 85 | 1001 |
| 23/07 | 21:00 | TSTempestade tropical | 75 | 1003 |
| 23/07 | 18:00 | TSTempestade tropical | 65 | 1004 |
| 23/07 | 15:00 | TDDepressão tropical | 60 | 1006 |
| 23/07 | 12:00 | TDDepressão tropical | 55 | 1007 |
| 23/07 | 09:00 | TDDepressão tropical | 55 | 1008 |
| 23/07 | 06:00 | TDDepressão tropical | 55 | 1009 |
| 23/07 | 03:00 | TDDepressão tropical | 50 | 1009 |
| 23/07 | 00:00 | TDDepressão tropical | 45 | 1009 |
| 22/07 | 21:00 | TDDepressão tropical | 45 | -- |
| 22/07 | 18:00 | TDDepressão tropical | 35 | -- |
| 22/07 | 15:00 | TDDepressão tropical | 35 | -- |
| 22/07 | 12:00 | TDDepressão tropical | 35 | -- |
Cronologia de localização
111 Registos de localizaçãoDetalhes do evento
Ligações das fontes
A localização, a extensão e o estado de cada evento podem ser atualizados em momentos diferentes consoante a fonte. Confirme decisões importantes junto das autoridades oficiais de emergência.
Os registos de eventos provêm da NASA EONET e são complementados por registos de deslizamentos de terra do USGS FDSN. As análises e previsões de tempestades podem utilizar a NOAA NHC ou o JTWC, com registos históricos ATCF da UCAR/NCAR quando disponíveis. As imagens de satélite provêm da NASA Worldview/GIBS (GOES e Himawari) ou da EUMETSAT Meteosat, consoante a cobertura do mapa.
Fontes: NASA EONET · USGS · NOAA NHC · JTWC · UCAR/NCAR ATCF · NASA Worldview/GIBS · EUMETSAT Meteosat · OpenStreetMap contributors